sensor_id;sensor_type;location;lat;lon;timestamp;pressure;altitude;pressure_sealevel;temperature;humidity
22755;BME280;11544;42.020;23.094;2024-01-27T00:02:06;97809.75;;;2.39;91.08
22755;BME280;11544;42.020;23.094;2024-01-27T00:04:35;97813.25;;;2.55;92.00
22755;BME280;11544;42.020;23.094;2024-01-27T00:07:03;97808.91;;;2.39;91.88
22755;BME280;11544;42.020;23.094;2024-01-27T00:09:31;97804.63;;;2.42;92.66
22755;BME280;11544;42.020;23.094;2024-01-27T00:11:58;97806.47;;;2.63;92.19
22755;BME280;11544;42.020;23.094;2024-01-27T00:14:25;97806.50;;;2.68;91.81
22755;BME280;11544;42.020;23.094;2024-01-27T00:16:52;97815.88;;;2.60;92.28
22755;BME280;11544;42.020;23.094;2024-01-27T00:19:18;97808.16;;;2.61;91.09
22755;BME280;11544;42.020;23.094;2024-01-27T00:21:45;97808.59;;;1.99;93.25
22755;BME280;11544;42.020;23.094;2024-01-27T00:24:13;97794.22;;;2.28;93.98
22755;BME280;11544;42.020;23.094;2024-01-27T00:26:40;97805.50;;;2.47;93.36
22755;BME280;11544;42.020;23.094;2024-01-27T00:29:07;97805.53;;;2.50;93.12
22755;BME280;11544;42.020;23.094;2024-01-27T00:31:34;97815.72;;;2.35;93.72
22755;BME280;11544;42.020;23.094;2024-01-27T00:34:01;97823.38;;;2.29;92.85
22755;BME280;11544;42.020;23.094;2024-01-27T00:36:28;97826.97;;;2.52;92.62
22755;BME280;11544;42.020;23.094;2024-01-27T00:38:55;97833.72;;;2.33;93.41
22755;BME280;11544;42.020;23.094;2024-01-27T00:41:22;97812.25;;;2.27;93.77
22755;BME280;11544;42.020;23.094;2024-01-27T00:43:49;97817.00;;;1.81;94.77
22755;BME280;11544;42.020;23.094;2024-01-27T00:46:16;97830.81;;;1.90;96.23
22755;BME280;11544;42.020;23.094;2024-01-27T00:48:43;97827.41;;;1.93;98.86
22755;BME280;11544;42.020;23.094;2024-01-27T00:51:10;97832.06;;;2.39;97.22
22755;BME280;11544;42.020;23.094;2024-01-27T00:53:37;97837.78;;;2.05;99.18
22755;BME280;11544;42.020;23.094;2024-01-27T00:56:05;97831.91;;;2.22;96.54
22755;BME280;11544;42.020;23.094;2024-01-27T00:58:31;97835.94;;;1.90;96.19
22755;BME280;11544;42.020;23.094;2024-01-27T01:00:58;97842.09;;;2.03;95.98
22755;BME280;11544;42.020;23.094;2024-01-27T01:03:25;97845.03;;;2.59;94.69
22755;BME280;11544;42.020;23.094;2024-01-27T01:05:52;97838.94;;;2.43;94.89
22755;BME280;11544;42.020;23.094;2024-01-27T01:08:19;97834.72;;;2.54;94.88
22755;BME280;11544;42.020;23.094;2024-01-27T01:10:46;97833.94;;;2.67;94.17
22755;BME280;11544;42.020;23.094;2024-01-27T01:13:13;97836.94;;;2.05;93.75
22755;BME280;11544;42.020;23.094;2024-01-27T01:15:40;97832.09;;;2.48;94.76
22755;BME280;11544;42.020;23.094;2024-01-27T01:18:07;97825.94;;;2.24;94.99
22755;BME280;11544;42.020;23.094;2024-01-27T01:20:34;97815.78;;;2.41;93.76
22755;BME280;11544;42.020;23.094;2024-01-27T01:23:01;97818.25;;;2.27;94.29
22755;BME280;11544;42.020;23.094;2024-01-27T01:25:27;97816.56;;;2.29;95.24
22755;BME280;11544;42.020;23.094;2024-01-27T01:27:54;97803.75;;;2.40;94.92
22755;BME280;11544;42.020;23.094;2024-01-27T01:30:21;97790.19;;;2.69;93.65
22755;BME280;11544;42.020;23.094;2024-01-27T01:32:48;97794.41;;;2.56;93.02
22755;BME280;11544;42.020;23.094;2024-01-27T01:35:17;97791.75;;;2.39;95.14
22755;BME280;11544;42.020;23.094;2024-01-27T01:37:44;97784.09;;;2.48;94.93
22755;BME280;11544;42.020;23.094;2024-01-27T01:40:10;97791.47;;;1.99;95.95
22755;BME280;11544;42.020;23.094;2024-01-27T01:42:39;97789.16;;;2.41;94.51
22755;BME280;11544;42.020;23.094;2024-01-27T01:45:06;97781.31;;;2.21;96.24
22755;BME280;11544;42.020;23.094;2024-01-27T01:47:33;97768.44;;;2.19;94.80
22755;BME280;11544;42.020;23.094;2024-01-27T01:50:01;97769.50;;;2.49;94.24
22755;BME280;11544;42.020;23.094;2024-01-27T01:52:28;97787.34;;;2.26;94.09
22755;BME280;11544;42.020;23.094;2024-01-27T01:54:55;97786.53;;;2.27;93.19
22755;BME280;11544;42.020;23.094;2024-01-27T01:57:22;97793.41;;;2.32;95.20
22755;BME280;11544;42.020;23.094;2024-01-27T01:59:49;97804.19;;;1.84;97.94
22755;BME280;11544;42.020;23.094;2024-01-27T02:02:16;97794.09;;;2.07;97.94
22755;BME280;11544;42.020;23.094;2024-01-27T02:04:44;97803.31;;;1.82;99.56
22755;BME280;11544;42.020;23.094;2024-01-27T02:07:14;97802.13;;;1.46;100.00
22755;BME280;11544;42.020;23.094;2024-01-27T02:09:41;97805.13;;;1.95;100.00
22755;BME280;11544;42.020;23.094;2024-01-27T02:12:07;97805.41;;;2.30;98.14
22755;BME280;11544;42.020;23.094;2024-01-27T02:14:34;97804.50;;;2.25;96.98
22755;BME280;11544;42.020;23.094;2024-01-27T02:17:01;97801.94;;;2.25;96.07
22755;BME280;11544;42.020;23.094;2024-01-27T02:19:28;97806.13;;;2.08;95.66
22755;BME280;11544;42.020;23.094;2024-01-27T02:21:55;97806.88;;;2.01;96.91
22755;BME280;11544;42.020;23.094;2024-01-27T02:24:22;97810.19;;;1.83;99.82
22755;BME280;11544;42.020;23.094;2024-01-27T02:26:49;97815.16;;;1.64;100.00
22755;BME280;11544;42.020;23.094;2024-01-27T02:31:50;97803.03;;;1.50;100.00
22755;BME280;11544;42.020;23.094;2024-01-27T02:34:17;97803.94;;;1.55;100.00
22755;BME280;11544;42.020;23.094;2024-01-27T02:36:44;97802.44;;;1.81;100.00
22755;BME280;11544;42.020;23.094;2024-01-27T02:39:11;97799.06;;;1.01;100.00
22755;BME280;11544;42.020;23.094;2024-01-27T02:41:39;97804.53;;;1.32;100.00
22755;BME280;11544;42.020;23.094;2024-01-27T02:44:06;97800.03;;;1.10;100.00
22755;BME280;11544;42.020;23.094;2024-01-27T02:46:33;97795.31;;;1.51;100.00
22755;BME280;11544;42.020;23.094;2024-01-27T02:49:00;97787.69;;;1.60;100.00
22755;BME280;11544;42.020;23.094;2024-01-27T02:51:27;97792.81;;;1.60;100.00
22755;BME280;11544;42.020;23.094;2024-01-27T02:53:54;97797.56;;;1.20;100.00
22755;BME280;11544;42.020;23.094;2024-01-27T02:56:20;97789.97;;;1.28;100.00
22755;BME280;11544;42.020;23.094;2024-01-27T02:58:47;97791.88;;;1.47;100.00
22755;BME280;11544;42.020;23.094;2024-01-27T03:01:14;97802.81;;;1.28;100.00
22755;BME280;11544;42.020;23.094;2024-01-27T03:03:41;97792.78;;;1.54;100.00
22755;BME280;11544;42.020;23.094;2024-01-27T03:06:08;97795.25;;;1.43;100.00
22755;BME280;11544;42.020;23.094;2024-01-27T03:08:35;97784.78;;;1.26;100.00
22755;BME280;11544;42.020;23.094;2024-01-27T03:11:02;97767.28;;;1.79;100.00
22755;BME280;11544;42.020;23.094;2024-01-27T03:13:29;97771.66;;;1.90;100.00
22755;BME280;11544;42.020;23.094;2024-01-27T03:15:56;97776.50;;;1.52;100.00
22755;BME280;11544;42.020;23.094;2024-01-27T03:18:23;97787.69;;;1.59;100.00
22755;BME280;11544;42.020;23.094;2024-01-27T03:20:54;97787.53;;;1.43;100.00
22755;BME280;11544;42.020;23.094;2024-01-27T03:23:21;97784.72;;;1.19;100.00
22755;BME280;11544;42.020;23.094;2024-01-27T03:25:48;97787.56;;;1.48;100.00
22755;BME280;11544;42.020;23.094;2024-01-27T03:28:15;97794.63;;;1.69;100.00
22755;BME280;11544;42.020;23.094;2024-01-27T03:30:42;97781.84;;;1.75;100.00
22755;BME280;11544;42.020;23.094;2024-01-27T03:33:09;97781.25;;;2.08;100.00
22755;BME280;11544;42.020;23.094;2024-01-27T03:35:39;97782.09;;;2.09;100.00
22755;BME280;11544;42.020;23.094;2024-01-27T03:38:06;97773.66;;;2.28;100.00
22755;BME280;11544;42.020;23.094;2024-01-27T03:40:33;97783.72;;;1.98;100.00
22755;BME280;11544;42.020;23.094;2024-01-27T03:43:00;97782.69;;;1.74;100.00
22755;BME280;11544;42.020;23.094;2024-01-27T03:45:26;97777.13;;;2.32;100.00
22755;BME280;11544;42.020;23.094;2024-01-27T03:47:53;97786.16;;;1.79;100.00
22755;BME280;11544;42.020;23.094;2024-01-27T03:50:21;97786.91;;;1.66;100.00
22755;BME280;11544;42.020;23.094;2024-01-27T03:52:47;97789.47;;;1.67;100.00
22755;BME280;11544;42.020;23.094;2024-01-27T03:55:15;97784.72;;;2.14;100.00
22755;BME280;11544;42.020;23.094;2024-01-27T03:57:41;97785.56;;;2.14;100.00
22755;BME280;11544;42.020;23.094;2024-01-27T04:00:09;97781.31;;;2.21;100.00
22755;BME280;11544;42.020;23.094;2024-01-27T04:02:37;97780.28;;;1.96;100.00
22755;BME280;11544;42.020;23.094;2024-01-27T04:05:04;97790.41;;;1.73;100.00
22755;BME280;11544;42.020;23.094;2024-01-27T04:07:31;97787.84;;;1.76;100.00
22755;BME280;11544;42.020;23.094;2024-01-27T04:09:58;97786.56;;;2.38;100.00
22755;BME280;11544;42.020;23.094;2024-01-27T04:12:25;97782.53;;;2.84;100.00
22755;BME280;11544;42.020;23.094;2024-01-27T04:14:52;97786.53;;;2.30;100.00
22755;BME280;11544;42.020;23.094;2024-01-27T04:17:19;97795.56;;;1.77;100.00
22755;BME280;11544;42.020;23.094;2024-01-27T04:19:46;97793.56;;;2.59;100.00
22755;BME280;11544;42.020;23.094;2024-01-27T04:22:13;97798.13;;;1.79;100.00
22755;BME280;11544;42.020;23.094;2024-01-27T04:24:40;97802.41;;;1.75;100.00
22755;BME280;11544;42.020;23.094;2024-01-27T04:27:06;97807.13;;;1.34;100.00
22755;BME280;11544;42.020;23.094;2024-01-27T04:29:36;97809.16;;;1.64;100.00
22755;BME280;11544;42.020;23.094;2024-01-27T04:32:03;97814.16;;;1.50;100.00
22755;BME280;11544;42.020;23.094;2024-01-27T04:34:31;97813.13;;;2.30;100.00
22755;BME280;11544;42.020;23.094;2024-01-27T04:36:58;97821.72;;;1.35;100.00
22755;BME280;11544;42.020;23.094;2024-01-27T04:39:25;97808.44;;;1.82;100.00
22755;BME280;11544;42.020;23.094;2024-01-27T04:41:52;97813.22;;;1.43;100.00
22755;BME280;11544;42.020;23.094;2024-01-27T04:44:19;97810.19;;;1.86;100.00
22755;BME280;11544;42.020;23.094;2024-01-27T04:46:47;97814.44;;;1.78;100.00
22755;BME280;11544;42.020;23.094;2024-01-27T04:49:15;97822.94;;;1.72;100.00
22755;BME280;11544;42.020;23.094;2024-01-27T04:51:42;97823.69;;;1.62;100.00
22755;BME280;11544;42.020;23.094;2024-01-27T04:54:09;97815.59;;;1.25;100.00
22755;BME280;11544;42.020;23.094;2024-01-27T04:56:36;97816.56;;;1.36;100.00
22755;BME280;11544;42.020;23.094;2024-01-27T04:59:03;97816.75;;;1.53;100.00
22755;BME280;11544;42.020;23.094;2024-01-27T05:01:32;97813.66;;;1.88;100.00
22755;BME280;11544;42.020;23.094;2024-01-27T05:03:59;97805.59;;;1.50;100.00
22755;BME280;11544;42.020;23.094;2024-01-27T05:06:26;97808.03;;;1.37;100.00
22755;BME280;11544;42.020;23.094;2024-01-27T05:08:53;97817.84;;;1.75;100.00
22755;BME280;11544;42.020;23.094;2024-01-27T05:11:30;97827.34;;;1.85;100.00
22755;BME280;11544;42.020;23.094;2024-01-27T05:13:59;97833.28;;;1.81;100.00
22755;BME280;11544;42.020;23.094;2024-01-27T05:16:27;97836.19;;;2.21;100.00
22755;BME280;11544;42.020;23.094;2024-01-27T05:18:54;97847.09;;;1.89;100.00
22755;BME280;11544;42.020;23.094;2024-01-27T05:21:21;97838.00;;;2.30;100.00
22755;BME280;11544;42.020;23.094;2024-01-27T05:23:49;97836.06;;;2.04;100.00
22755;BME280;11544;42.020;23.094;2024-01-27T05:26:16;97843.88;;;1.26;100.00
22755;BME280;11544;42.020;23.094;2024-01-27T05:28:43;97844.69;;;1.22;100.00
22755;BME280;11544;42.020;23.094;2024-01-27T05:31:10;97851.06;;;1.58;100.00
22755;BME280;11544;42.020;23.094;2024-01-27T05:33:38;97850.31;;;1.70;100.00
22755;BME280;11544;42.020;23.094;2024-01-27T05:36:06;97850.88;;;1.41;100.00
22755;BME280;11544;42.020;23.094;2024-01-27T05:38:33;97846.91;;;1.71;100.00
22755;BME280;11544;42.020;23.094;2024-01-27T05:41:03;97846.47;;;2.15;100.00
22755;BME280;11544;42.020;23.094;2024-01-27T05:43:30;97845.53;;;2.07;100.00
22755;BME280;11544;42.020;23.094;2024-01-27T05:45:57;97847.94;;;1.87;100.00
22755;BME280;11544;42.020;23.094;2024-01-27T05:48:27;97859.69;;;1.63;100.00
22755;BME280;11544;42.020;23.094;2024-01-27T05:50:58;97859.66;;;1.60;100.00
22755;BME280;11544;42.020;23.094;2024-01-27T05:53:25;97870.22;;;1.91;100.00
22755;BME280;11544;42.020;23.094;2024-01-27T05:55:53;97867.31;;;1.56;100.00
22755;BME280;11544;42.020;23.094;2024-01-27T05:58:29;97865.41;;;2.25;100.00
22755;BME280;11544;42.020;23.094;2024-01-27T06:00:56;97867.88;;;2.17;100.00
22755;BME280;11544;42.020;23.094;2024-01-27T06:03:23;97868.94;;;6.23;100.00
22755;BME280;11544;42.020;23.094;2024-01-27T06:05:50;97868.16;;;7.08;100.00
22755;BME280;11544;42.020;23.094;2024-01-27T06:08:17;97877.03;;;2.93;100.00
22755;BME280;11544;42.020;23.094;2024-01-27T06:10:45;97875.53;;;2.06;100.00
22755;BME280;11544;42.020;23.094;2024-01-27T06:13:12;97881.63;;;2.19;100.00
22755;BME280;11544;42.020;23.094;2024-01-27T06:15:39;97884.06;;;2.05;100.00
22755;BME280;11544;42.020;23.094;2024-01-27T06:18:06;97883.94;;;1.90;100.00
22755;BME280;11544;42.020;23.094;2024-01-27T06:20:33;97891.88;;;2.15;100.00
22755;BME280;11544;42.020;23.094;2024-01-27T06:23:00;97887.84;;;2.41;100.00
22755;BME280;11544;42.020;23.094;2024-01-27T06:25:27;97891.25;;;2.39;100.00
22755;BME280;11544;42.020;23.094;2024-01-27T06:27:54;97894.34;;;2.02;100.00
22755;BME280;11544;42.020;23.094;2024-01-27T06:30:21;97887.06;;;2.53;100.00
22755;BME280;11544;42.020;23.094;2024-01-27T06:32:48;97892.22;;;2.53;100.00
22755;BME280;11544;42.020;23.094;2024-01-27T06:35:15;97901.66;;;2.56;100.00
22755;BME280;11544;42.020;23.094;2024-01-27T06:37:42;97898.19;;;2.49;100.00
22755;BME280;11544;42.020;23.094;2024-01-27T06:40:09;97900.59;;;2.27;100.00
22755;BME280;11544;42.020;23.094;2024-01-27T06:42:37;97903.91;;;2.16;100.00
22755;BME280;11544;42.020;23.094;2024-01-27T06:45:04;97907.25;;;2.07;100.00
22755;BME280;11544;42.020;23.094;2024-01-27T06:47:31;97915.34;;;2.48;100.00
22755;BME280;11544;42.020;23.094;2024-01-27T06:49:58;97914.50;;;2.54;100.00
22755;BME280;11544;42.020;23.094;2024-01-27T06:52:25;97912.59;;;2.31;100.00
22755;BME280;11544;42.020;23.094;2024-01-27T06:54:52;97901.44;;;2.28;100.00
22755;BME280;11544;42.020;23.094;2024-01-27T06:57:19;97907.31;;;2.13;100.00
22755;BME280;11544;42.020;23.094;2024-01-27T06:59:51;97917.13;;;2.62;100.00
22755;BME280;11544;42.020;23.094;2024-01-27T07:02:23;97909.41;;;2.62;100.00
22755;BME280;11544;42.020;23.094;2024-01-27T07:04:50;97919.59;;;2.45;100.00
22755;BME280;11544;42.020;23.094;2024-01-27T07:07:27;97922.81;;;2.21;100.00
22755;BME280;11544;42.020;23.094;2024-01-27T07:09:55;97928.13;;;2.39;100.00
22755;BME280;11544;42.020;23.094;2024-01-27T07:12:22;97922.53;;;2.95;100.00
22755;BME280;11544;42.020;23.094;2024-01-27T07:14:50;97936.13;;;2.74;100.00
22755;BME280;11544;42.020;23.094;2024-01-27T07:17:22;97929.59;;;2.14;100.00
22755;BME280;11544;42.020;23.094;2024-01-27T07:19:48;97949.47;;;2.29;100.00
22755;BME280;11544;42.020;23.094;2024-01-27T07:22:15;97951.56;;;1.80;100.00
22755;BME280;11544;42.020;23.094;2024-01-27T07:24:42;97959.69;;;2.21;100.00
22755;BME280;11544;42.020;23.094;2024-01-27T07:27:12;97959.31;;;1.86;100.00
22755;BME280;11544;42.020;23.094;2024-01-27T07:29:40;97966.97;;;1.78;100.00
22755;BME280;11544;42.020;23.094;2024-01-27T07:32:07;97974.47;;;1.61;100.00
22755;BME280;11544;42.020;23.094;2024-01-27T07:34:43;97973.25;;;2.05;100.00
22755;BME280;11544;42.020;23.094;2024-01-27T07:37:10;97965.53;;;2.03;100.00
22755;BME280;11544;42.020;23.094;2024-01-27T07:39:37;97963.22;;;2.32;100.00
22755;BME280;11544;42.020;23.094;2024-01-27T07:42:04;97960.84;;;2.57;100.00
22755;BME280;11544;42.020;23.094;2024-01-27T07:44:31;97961.81;;;2.68;100.00
22755;BME280;11544;42.020;23.094;2024-01-27T07:46:58;97957.41;;;2.55;100.00
22755;BME280;11544;42.020;23.094;2024-01-27T07:49:25;97942.94;;;2.71;100.00
22755;BME280;11544;42.020;23.094;2024-01-27T07:51:52;97921.31;;;2.46;100.00
22755;BME280;11544;42.020;23.094;2024-01-27T07:54:20;97923.72;;;2.29;100.00
22755;BME280;11544;42.020;23.094;2024-01-27T07:56:47;97927.25;;;2.40;100.00
22755;BME280;11544;42.020;23.094;2024-01-27T07:59:14;97935.16;;;2.62;100.00
22755;BME280;11544;42.020;23.094;2024-01-27T08:01:41;97937.03;;;2.86;100.00
22755;BME280;11544;42.020;23.094;2024-01-27T08:04:08;97926.13;;;3.24;100.00
22755;BME280;11544;42.020;23.094;2024-01-27T08:06:47;97921.56;;;2.83;100.00
22755;BME280;11544;42.020;23.094;2024-01-27T08:09:14;97924.44;;;3.29;100.00
22755;BME280;11544;42.020;23.094;2024-01-27T08:11:42;97917.66;;;3.54;100.00
22755;BME280;11544;42.020;23.094;2024-01-27T08:14:09;97912.53;;;3.65;100.00
22755;BME280;11544;42.020;23.094;2024-01-27T08:16:36;97927.94;;;3.46;100.00
22755;BME280;11544;42.020;23.094;2024-01-27T08:19:03;97942.66;;;3.73;100.00
22755;BME280;11544;42.020;23.094;2024-01-27T08:21:31;97948.38;;;3.12;100.00
22755;BME280;11544;42.020;23.094;2024-01-27T08:23:58;97956.88;;;2.99;100.00
22755;BME280;11544;42.020;23.094;2024-01-27T08:26:25;97942.59;;;3.58;100.00
22755;BME280;11544;42.020;23.094;2024-01-27T08:28:53;97951.22;;;3.69;100.00
22755;BME280;11544;42.020;23.094;2024-01-27T08:31:22;97938.31;;;3.57;100.00
22755;BME280;11544;42.020;23.094;2024-01-27T08:33:49;97958.19;;;3.90;100.00
22755;BME280;11544;42.020;23.094;2024-01-27T08:36:17;97957.34;;;3.93;100.00
22755;BME280;11544;42.020;23.094;2024-01-27T08:38:44;97968.28;;;3.38;100.00
22755;BME280;11544;42.020;23.094;2024-01-27T08:41:12;97976.91;;;3.43;100.00
22755;BME280;11544;42.020;23.094;2024-01-27T08:43:39;97996.56;;;3.30;100.00
22755;BME280;11544;42.020;23.094;2024-01-27T08:46:06;98004.28;;;3.23;100.00
22755;BME280;11544;42.020;23.094;2024-01-27T08:48:38;98002.66;;;3.42;100.00
22755;BME280;11544;42.020;23.094;2024-01-27T08:51:10;98004.59;;;2.54;100.00
22755;BME280;11544;42.020;23.094;2024-01-27T08:53:38;98008.47;;;3.05;100.00
22755;BME280;11544;42.020;23.094;2024-01-27T08:56:05;98029.25;;;3.37;100.00
22755;BME280;11544;42.020;23.094;2024-01-27T08:58:32;98014.66;;;3.35;100.00
22755;BME280;11544;42.020;23.094;2024-01-27T09:00:59;98017.06;;;3.10;100.00
22755;BME280;11544;42.020;23.094;2024-01-27T09:03:32;98033.56;;;3.37;100.00
22755;BME280;11544;42.020;23.094;2024-01-27T09:05:59;98018.91;;;3.30;100.00
22755;BME280;11544;42.020;23.094;2024-01-27T09:08:26;98009.97;;;2.80;100.00
22755;BME280;11544;42.020;23.094;2024-01-27T09:10:52;98009.34;;;3.07;100.00
22755;BME280;11544;42.020;23.094;2024-01-27T09:13:19;97997.88;;;4.57;100.00
22755;BME280;11544;42.020;23.094;2024-01-27T09:15:46;97989.28;;;4.67;100.00
22755;BME280;11544;42.020;23.094;2024-01-27T09:18:15;97974.63;;;4.28;100.00
22755;BME280;11544;42.020;23.094;2024-01-27T09:20:43;97951.34;;;5.09;100.00
22755;BME280;11544;42.020;23.094;2024-01-27T09:23:10;97957.44;;;4.77;100.00
22755;BME280;11544;42.020;23.094;2024-01-27T09:25:38;97959.13;;;4.91;100.00
22755;BME280;11544;42.020;23.094;2024-01-27T09:28:06;97952.22;;;4.19;100.00
22755;BME280;11544;42.020;23.094;2024-01-27T09:30:32;97955.72;;;4.73;100.00
22755;BME280;11544;42.020;23.094;2024-01-27T09:33:04;97953.97;;;4.78;100.00
22755;BME280;11544;42.020;23.094;2024-01-27T09:35:31;97955.69;;;4.79;100.00
22755;BME280;11544;42.020;23.094;2024-01-27T09:37:58;97933.25;;;5.15;100.00
22755;BME280;11544;42.020;23.094;2024-01-27T09:40:25;97924.72;;;4.69;100.00
22755;BME280;11544;42.020;23.094;2024-01-27T09:42:53;97934.09;;;5.19;100.00
22755;BME280;11544;42.020;23.094;2024-01-27T09:45:23;97934.19;;;4.57;100.00
22755;BME280;11544;42.020;23.094;2024-01-27T09:47:51;97924.69;;;4.90;100.00
22755;BME280;11544;42.020;23.094;2024-01-27T09:50:19;97922.97;;;4.78;100.00
22755;BME280;11544;42.020;23.094;2024-01-27T09:52:48;97924.59;;;5.28;100.00
22755;BME280;11544;42.020;23.094;2024-01-27T09:55:15;97929.81;;;5.22;100.00
22755;BME280;11544;42.020;23.094;2024-01-27T09:57:44;97933.31;;;4.37;100.00
22755;BME280;11544;42.020;23.094;2024-01-27T10:00:11;97941.03;;;4.95;100.00
22755;BME280;11544;42.020;23.094;2024-01-27T10:02:42;97932.44;;;4.95;100.00
22755;BME280;11544;42.020;23.094;2024-01-27T10:05:10;97935.88;;;4.81;100.00
22755;BME280;11544;42.020;23.094;2024-01-27T10:07:37;97948.75;;;5.07;100.00
22755;BME280;11544;42.020;23.094;2024-01-27T10:10:05;97942.78;;;4.69;100.00
22755;BME280;11544;42.020;23.094;2024-01-27T10:12:32;97928.13;;;4.91;100.00
22755;BME280;11544;42.020;23.094;2024-01-27T10:15:02;97933.25;;;5.18;100.00
22755;BME280;11544;42.020;23.094;2024-01-27T10:17:29;97934.94;;;5.28;100.00
22755;BME280;11544;42.020;23.094;2024-01-27T10:20:02;97923.50;;;5.83;100.00
22755;BME280;11544;42.020;23.094;2024-01-27T10:22:37;97941.00;;;5.20;100.00
22755;BME280;11544;42.020;23.094;2024-01-27T10:25:06;97935.69;;;5.60;100.00
22755;BME280;11544;42.020;23.094;2024-01-27T10:27:34;97936.44;;;5.85;100.00
22755;BME280;11544;42.020;23.094;2024-01-27T10:30:02;97938.16;;;5.87;100.00
22755;BME280;11544;42.020;23.094;2024-01-27T10:32:29;97941.53;;;6.06;100.00
22755;BME280;11544;42.020;23.094;2024-01-27T10:35:06;97940.06;;;5.47;100.00
22755;BME280;11544;42.020;23.094;2024-01-27T10:37:37;97931.41;;;5.54;100.00
22755;BME280;11544;42.020;23.094;2024-01-27T10:40:05;97928.97;;;5.08;100.00
22755;BME280;11544;42.020;23.094;2024-01-27T10:42:35;97931.50;;;5.34;100.00
22755;BME280;11544;42.020;23.094;2024-01-27T10:45:04;97927.91;;;5.66;100.00
22755;BME280;11544;42.020;23.094;2024-01-27T10:47:32;97928.94;;;5.17;100.00
22755;BME280;11544;42.020;23.094;2024-01-27T10:50:00;97923.72;;;5.34;100.00
22755;BME280;11544;42.020;23.094;2024-01-27T10:52:32;97922.69;;;5.73;100.00
22755;BME280;11544;42.020;23.094;2024-01-27T10:55:03;97918.31;;;5.83;100.00
22755;BME280;11544;42.020;23.094;2024-01-27T10:57:30;97920.22;;;5.43;100.00
22755;BME280;11544;42.020;23.094;2024-01-27T10:59:58;97916.78;;;5.53;100.00
22755;BME280;11544;42.020;23.094;2024-01-27T11:02:28;97918.31;;;5.91;100.00
22755;BME280;11544;42.020;23.094;2024-01-27T11:05:00;97928.78;;;5.69;100.00
22755;BME280;11544;42.020;23.094;2024-01-27T11:07:32;97914.13;;;5.59;100.00
22755;BME280;11544;42.020;23.094;2024-01-27T11:09:59;97908.72;;;6.10;100.00
22755;BME280;11544;42.020;23.094;2024-01-27T11:12:26;97907.78;;;6.19;100.00
22755;BME280;11544;42.020;23.094;2024-01-27T11:14:56;97905.25;;;6.11;100.00
22755;BME280;11544;42.020;23.094;2024-01-27T11:17:26;97905.91;;;6.42;100.00
22755;BME280;11544;42.020;23.094;2024-01-27T11:19:56;97900.19;;;5.96;100.00
22755;BME280;11544;42.020;23.094;2024-01-27T11:22:28;97905.25;;;6.12;100.00
22755;BME280;11544;42.020;23.094;2024-01-27T11:25:16;97910.16;;;6.51;100.00
22755;BME280;11544;42.020;23.094;2024-01-27T11:27:44;97920.47;;;6.55;100.00
22755;BME280;11544;42.020;23.094;2024-01-27T11:30:31;97931.72;;;6.51;100.00
22755;BME280;11544;42.020;23.094;2024-01-27T11:33:04;97927.47;;;6.46;100.00
22755;BME280;11544;42.020;23.094;2024-01-27T11:35:32;97936.28;;;6.20;100.00
22755;BME280;11544;42.020;23.094;2024-01-27T11:37:59;97936.31;;;6.12;100.00
22755;BME280;11544;42.020;23.094;2024-01-27T11:40:26;97930.09;;;6.41;100.00
22755;BME280;11544;42.020;23.094;2024-01-27T11:42:56;97929.13;;;6.51;100.00
22755;BME280;11544;42.020;23.094;2024-01-27T11:45:23;97935.38;;;6.29;100.00
22755;BME280;11544;42.020;23.094;2024-01-27T11:47:51;97932.63;;;6.50;100.00
22755;BME280;11544;42.020;23.094;2024-01-27T11:50:18;97933.00;;;5.86;100.00
22755;BME280;11544;42.020;23.094;2024-01-27T11:52:45;97933.84;;;5.83;100.00
22755;BME280;11544;42.020;23.094;2024-01-27T11:55:13;97932.16;;;5.82;100.00
22755;BME280;11544;42.020;23.094;2024-01-27T11:57:42;97930.31;;;6.12;100.00
22755;BME280;11544;42.020;23.094;2024-01-27T12:00:09;97924.16;;;6.28;100.00
22755;BME280;11544;42.020;23.094;2024-01-27T12:02:38;97924.97;;;6.30;100.00
22755;BME280;11544;42.020;23.094;2024-01-27T12:05:06;97922.03;;;6.78;100.00
22755;BME280;11544;42.020;23.094;2024-01-27T12:07:34;97925.94;;;6.14;100.00
22755;BME280;11544;42.020;23.094;2024-01-27T12:10:01;97925.97;;;6.11;100.00
22755;BME280;11544;42.020;23.094;2024-01-27T12:12:29;97915.28;;;6.54;100.00
22755;BME280;11544;42.020;23.094;2024-01-27T12:14:55;97923.31;;;6.19;100.00
22755;BME280;11544;42.020;23.094;2024-01-27T12:17:24;97912.03;;;6.32;100.00
22755;BME280;11544;42.020;23.094;2024-01-27T12:19:52;97922.28;;;6.47;100.00
22755;BME280;11544;42.020;23.094;2024-01-27T12:22:23;97910.91;;;6.64;100.00
22755;BME280;11544;42.020;23.094;2024-01-27T12:25:07;97907.03;;;7.06;100.00
22755;BME280;11544;42.020;23.094;2024-01-27T12:27:34;97909.38;;;7.32;93.63
22755;BME280;11544;42.020;23.094;2024-01-27T12:30:02;97903.03;;;7.56;89.22
22755;BME280;11544;42.020;23.094;2024-01-27T12:32:31;97900.44;;;7.56;87.08
22755;BME280;11544;42.020;23.094;2024-01-27T12:34:58;97902.72;;;7.81;81.79
22755;BME280;11544;42.020;23.094;2024-01-27T12:37:30;97910.66;;;7.69;77.69
22755;BME280;11544;42.020;23.094;2024-01-27T12:39:57;97890.44;;;7.94;75.70
22755;BME280;11544;42.020;23.094;2024-01-27T12:42:24;97896.84;;;7.67;75.37
22755;BME280;11544;42.020;23.094;2024-01-27T12:44:51;97900.19;;;7.76;75.65
22755;BME280;11544;42.020;23.094;2024-01-27T12:47:18;97903.50;;;7.88;73.36
22755;BME280;11544;42.020;23.094;2024-01-27T12:49:46;97902.88;;;7.70;73.35
22755;BME280;11544;42.020;23.094;2024-01-27T12:52:13;97914.16;;;7.66;72.64
22755;BME280;11544;42.020;23.094;2024-01-27T12:54:41;97921.84;;;7.74;72.77
22755;BME280;11544;42.020;23.094;2024-01-27T12:57:08;97911.50;;;7.71;72.02
22755;BME280;11544;42.020;23.094;2024-01-27T12:59:35;97904.69;;;7.62;70.77